sensor_id;sensor_type;location;lat;lon;timestamp;P1;durP1;ratioP1;P2;durP2;ratioP2
44832;SDS011;30569;51.252;9.830;2022-08-18T00:02:09;1325.82;;;999.90;;
44832;SDS011;30569;51.252;9.830;2022-08-18T00:04:39;1324.68;;;999.90;;
44832;SDS011;30569;51.252;9.830;2022-08-18T00:07:05;1302.60;;;999.90;;
44832;SDS011;30569;51.252;9.830;2022-08-18T00:09:36;1334.93;;;999.90;;
44832;SDS011;30569;51.252;9.830;2022-08-18T00:12:04;1351.72;;;999.90;;
44832;SDS011;30569;51.252;9.830;2022-08-18T00:14:33;1364.78;;;999.90;;
44832;SDS011;30569;51.252;9.830;2022-08-18T00:16:59;1378.10;;;999.90;;
44832;SDS011;30569;51.252;9.830;2022-08-18T00:19:25;1396.22;;;999.90;;
44832;SDS011;30569;51.252;9.830;2022-08-18T00:21:50;1411.70;;;999.90;;
44832;SDS011;30569;51.252;9.830;2022-08-18T00:24:16;1423.65;;;999.90;;
44832;SDS011;30569;51.252;9.830;2022-08-18T00:26:42;1452.18;;;999.90;;
44832;SDS011;30569;51.252;9.830;2022-08-18T00:29:08;1504.03;;;999.90;;
44832;SDS011;30569;51.252;9.830;2022-08-18T00:31:33;1474.70;;;999.90;;
44832;SDS011;30569;51.252;9.830;2022-08-18T00:33:59;1491.00;;;999.90;;
44832;SDS011;30569;51.252;9.830;2022-08-18T00:36:25;1499.95;;;999.90;;
44832;SDS011;30569;51.252;9.830;2022-08-18T00:38:51;1453.55;;;999.90;;
44832;SDS011;30569;51.252;9.830;2022-08-18T00:41:18;1553.45;;;999.90;;
44832;SDS011;30569;51.252;9.830;2022-08-18T00:43:46;1557.50;;;999.90;;
44832;SDS011;30569;51.252;9.830;2022-08-18T00:46:18;1542.57;;;999.90;;
44832;SDS011;30569;51.252;9.830;2022-08-18T00:48:46;1537.22;;;999.90;;
44832;SDS011;30569;51.252;9.830;2022-08-18T00:51:14;1574.43;;;999.90;;
44832;SDS011;30569;51.252;9.830;2022-08-18T00:54:08;1572.90;;;999.90;;
44832;SDS011;30569;51.252;9.830;2022-08-18T00:56:45;1624.65;;;999.90;;
44832;SDS011;30569;51.252;9.830;2022-08-18T00:59:19;1658.93;;;999.90;;
44832;SDS011;30569;51.252;9.830;2022-08-18T01:01:52;1515.47;;;999.90;;
44832;SDS011;30569;51.252;9.830;2022-08-18T01:04:34;1665.25;;;999.90;;
44832;SDS011;30569;51.252;9.830;2022-08-18T01:07:22;1721.05;;;999.90;;
44832;SDS011;30569;51.252;9.830;2022-08-18T01:09:53;1710.97;;;999.90;;
44832;SDS011;30569;51.252;9.830;2022-08-18T01:12:20;1757.43;;;999.90;;
44832;SDS011;30569;51.252;9.830;2022-08-18T01:14:45;1683.72;;;999.90;;
44832;SDS011;30569;51.252;9.830;2022-08-18T01:17:11;1768.57;;;999.90;;
44832;SDS011;30569;51.252;9.830;2022-08-18T01:19:56;1770.88;;;999.90;;
44832;SDS011;30569;51.252;9.830;2022-08-18T01:25:12;1824.00;;;999.90;;
44832;SDS011;30569;51.252;9.830;2022-08-18T01:27:57;1864.97;;;999.90;;
44832;SDS011;30569;51.252;9.830;2022-08-18T01:30:27;1849.43;;;999.90;;
44832;SDS011;30569;51.252;9.830;2022-08-18T01:32:54;1938.20;;;999.90;;
44832;SDS011;30569;51.252;9.830;2022-08-18T01:35:20;1946.38;;;999.90;;
44832;SDS011;30569;51.252;9.830;2022-08-18T01:37:49;1987.82;;;999.90;;
44832;SDS011;30569;51.252;9.830;2022-08-18T01:40:16;1977.30;;;999.90;;
44832;SDS011;30569;51.252;9.830;2022-08-18T01:42:42;1897.45;;;999.90;;
44832;SDS011;30569;51.252;9.830;2022-08-18T01:45:09;1936.53;;;999.90;;
44832;SDS011;30569;51.252;9.830;2022-08-18T01:47:36;1967.00;;;999.90;;
44832;SDS011;30569;51.252;9.830;2022-08-18T01:50:02;1983.35;;;999.90;;
44832;SDS011;30569;51.252;9.830;2022-08-18T01:52:29;1999.90;;;999.90;;
44832;SDS011;30569;51.252;9.830;2022-08-18T01:54:55;1999.90;;;999.90;;
44832;SDS011;30569;51.252;9.830;2022-08-18T01:57:21;1999.90;;;999.90;;
44832;SDS011;30569;51.252;9.830;2022-08-18T01:59:47;1999.90;;;999.90;;
44832;SDS011;30569;51.252;9.830;2022-08-18T02:02:14;1999.90;;;999.90;;
44832;SDS011;30569;51.252;9.830;2022-08-18T02:04:44;1999.90;;;999.90;;
44832;SDS011;30569;51.252;9.830;2022-08-18T02:07:11;1999.90;;;999.90;;
44832;SDS011;30569;51.252;9.830;2022-08-18T02:09:37;1999.90;;;999.90;;
44832;SDS011;30569;51.252;9.830;2022-08-18T02:12:04;1963.07;;;999.90;;
44832;SDS011;30569;51.252;9.830;2022-08-18T02:14:31;1999.90;;;999.90;;
44832;SDS011;30569;51.252;9.830;2022-08-18T02:16:58;1999.90;;;999.90;;
44832;SDS011;30569;51.252;9.830;2022-08-18T02:19:26;1999.90;;;999.90;;
44832;SDS011;30569;51.252;9.830;2022-08-18T02:21:52;1999.90;;;999.90;;
44832;SDS011;30569;51.252;9.830;2022-08-18T02:24:18;1999.90;;;999.90;;
44832;SDS011;30569;51.252;9.830;2022-08-18T02:26:43;1999.90;;;999.90;;
44832;SDS011;30569;51.252;9.830;2022-08-18T02:29:09;1999.90;;;999.90;;
44832;SDS011;30569;51.252;9.830;2022-08-18T02:31:35;1999.90;;;999.90;;
44832;SDS011;30569;51.252;9.830;2022-08-18T02:34:00;1999.90;;;999.90;;
44832;SDS011;30569;51.252;9.830;2022-08-18T02:36:26;1999.90;;;999.90;;
44832;SDS011;30569;51.252;9.830;2022-08-18T02:38:52;1999.90;;;999.90;;
44832;SDS011;30569;51.252;9.830;2022-08-18T02:41:18;1999.90;;;999.90;;
44832;SDS011;30569;51.252;9.830;2022-08-18T02:43:44;1999.90;;;999.90;;
44832;SDS011;30569;51.252;9.830;2022-08-18T02:46:12;1999.90;;;999.90;;
44832;SDS011;30569;51.252;9.830;2022-08-18T02:48:38;1999.90;;;999.90;;
44832;SDS011;30569;51.252;9.830;2022-08-18T02:51:11;1999.90;;;999.90;;
44832;SDS011;30569;51.252;9.830;2022-08-18T02:53:39;1999.90;;;999.90;;
44832;SDS011;30569;51.252;9.830;2022-08-18T02:56:18;1999.90;;;999.90;;
44832;SDS011;30569;51.252;9.830;2022-08-18T02:58:48;1999.90;;;999.90;;
44832;SDS011;30569;51.252;9.830;2022-08-18T03:01:17;1999.90;;;999.90;;
44832;SDS011;30569;51.252;9.830;2022-08-18T03:03:43;1999.90;;;999.90;;
44832;SDS011;30569;51.252;9.830;2022-08-18T03:06:09;1999.90;;;999.90;;
44832;SDS011;30569;51.252;9.830;2022-08-18T03:08:34;1999.90;;;999.90;;
44832;SDS011;30569;51.252;9.830;2022-08-18T03:11:00;1999.90;;;999.90;;
44832;SDS011;30569;51.252;9.830;2022-08-18T03:13:25;1999.90;;;999.90;;
44832;SDS011;30569;51.252;9.830;2022-08-18T03:15:51;1999.90;;;999.90;;
44832;SDS011;30569;51.252;9.830;2022-08-18T03:18:17;1999.90;;;999.90;;
44832;SDS011;30569;51.252;9.830;2022-08-18T03:20:42;1999.90;;;999.90;;
44832;SDS011;30569;51.252;9.830;2022-08-18T03:23:09;1999.90;;;999.90;;
44832;SDS011;30569;51.252;9.830;2022-08-18T03:25:35;1999.90;;;999.90;;
44832;SDS011;30569;51.252;9.830;2022-08-18T03:28:07;1999.90;;;999.90;;
44832;SDS011;30569;51.252;9.830;2022-08-18T03:30:32;1999.90;;;999.90;;
44832;SDS011;30569;51.252;9.830;2022-08-18T03:32:58;1999.90;;;999.90;;
44832;SDS011;30569;51.252;9.830;2022-08-18T03:35:23;1999.90;;;999.90;;
44832;SDS011;30569;51.252;9.830;2022-08-18T03:37:49;1999.90;;;999.90;;
44832;SDS011;30569;51.252;9.830;2022-08-18T03:40:15;1999.90;;;999.90;;
44832;SDS011;30569;51.252;9.830;2022-08-18T03:42:41;1999.90;;;999.90;;
44832;SDS011;30569;51.252;9.830;2022-08-18T03:45:06;1999.90;;;999.90;;
44832;SDS011;30569;51.252;9.830;2022-08-18T03:47:32;1999.90;;;999.90;;
44832;SDS011;30569;51.252;9.830;2022-08-18T03:49:58;1999.90;;;999.90;;
44832;SDS011;30569;51.252;9.830;2022-08-18T03:52:23;1999.90;;;999.90;;
44832;SDS011;30569;51.252;9.830;2022-08-18T03:54:49;1999.90;;;999.90;;
44832;SDS011;30569;51.252;9.830;2022-08-18T03:57:14;1999.90;;;999.90;;
44832;SDS011;30569;51.252;9.830;2022-08-18T03:59:40;1999.90;;;999.90;;
44832;SDS011;30569;51.252;9.830;2022-08-18T04:02:07;1999.90;;;999.90;;
44832;SDS011;30569;51.252;9.830;2022-08-18T04:04:33;1999.90;;;999.90;;
44832;SDS011;30569;51.252;9.830;2022-08-18T04:07:04;1999.90;;;999.90;;
44832;SDS011;30569;51.252;9.830;2022-08-18T04:09:32;1999.90;;;999.90;;
44832;SDS011;30569;51.252;9.830;2022-08-18T04:12:05;1999.90;;;999.90;;
44832;SDS011;30569;51.252;9.830;2022-08-18T04:14:36;1999.90;;;999.90;;
44832;SDS011;30569;51.252;9.830;2022-08-18T04:17:03;1999.90;;;999.90;;
44832;SDS011;30569;51.252;9.830;2022-08-18T04:19:29;1999.90;;;999.90;;
44832;SDS011;30569;51.252;9.830;2022-08-18T04:21:57;1999.90;;;999.90;;
44832;SDS011;30569;51.252;9.830;2022-08-18T04:24:23;1999.90;;;999.90;;
44832;SDS011;30569;51.252;9.830;2022-08-18T04:26:51;1999.90;;;999.90;;
44832;SDS011;30569;51.252;9.830;2022-08-18T04:29:17;1999.90;;;999.90;;
44832;SDS011;30569;51.252;9.830;2022-08-18T04:31:45;1999.90;;;999.90;;
44832;SDS011;30569;51.252;9.830;2022-08-18T04:34:11;1999.90;;;999.90;;
44832;SDS011;30569;51.252;9.830;2022-08-18T04:36:38;1999.90;;;999.90;;
44832;SDS011;30569;51.252;9.830;2022-08-18T04:39:06;1999.90;;;999.90;;
44832;SDS011;30569;51.252;9.830;2022-08-18T04:41:34;1999.90;;;999.90;;
44832;SDS011;30569;51.252;9.830;2022-08-18T04:44:01;1999.90;;;999.90;;
44832;SDS011;30569;51.252;9.830;2022-08-18T04:46:28;1999.90;;;999.90;;
44832;SDS011;30569;51.252;9.830;2022-08-18T04:48:56;1999.90;;;999.90;;
44832;SDS011;30569;51.252;9.830;2022-08-18T04:51:23;1999.90;;;999.90;;
44832;SDS011;30569;51.252;9.830;2022-08-18T04:53:50;1999.90;;;999.90;;
44832;SDS011;30569;51.252;9.830;2022-08-18T04:58:49;1999.90;;;999.90;;
44832;SDS011;30569;51.252;9.830;2022-08-18T05:01:16;1999.90;;;999.90;;
44832;SDS011;30569;51.252;9.830;2022-08-18T05:03:44;1999.90;;;999.90;;
44832;SDS011;30569;51.252;9.830;2022-08-18T05:06:10;1999.90;;;999.90;;
44832;SDS011;30569;51.252;9.830;2022-08-18T05:08:36;1999.90;;;999.90;;
44832;SDS011;30569;51.252;9.830;2022-08-18T05:11:02;1999.90;;;999.90;;
44832;SDS011;30569;51.252;9.830;2022-08-18T05:13:27;1999.90;;;999.90;;
44832;SDS011;30569;51.252;9.830;2022-08-18T05:15:56;1999.90;;;999.90;;
44832;SDS011;30569;51.252;9.830;2022-08-18T05:18:27;1999.90;;;999.90;;
44832;SDS011;30569;51.252;9.830;2022-08-18T05:20:56;1999.90;;;999.90;;
44832;SDS011;30569;51.252;9.830;2022-08-18T05:23:22;1999.90;;;999.90;;
44832;SDS011;30569;51.252;9.830;2022-08-18T05:25:48;1999.90;;;999.90;;
44832;SDS011;30569;51.252;9.830;2022-08-18T05:28:14;1999.90;;;999.90;;
44832;SDS011;30569;51.252;9.830;2022-08-18T05:30:40;1999.90;;;999.90;;
44832;SDS011;30569;51.252;9.830;2022-08-18T05:33:06;1999.90;;;999.90;;
44832;SDS011;30569;51.252;9.830;2022-08-18T05:35:37;1999.90;;;999.90;;
44832;SDS011;30569;51.252;9.830;2022-08-18T05:40:43;1999.90;;;999.90;;
44832;SDS011;30569;51.252;9.830;2022-08-18T05:43:13;1999.90;;;999.90;;
44832;SDS011;30569;51.252;9.830;2022-08-18T05:45:40;1999.90;;;999.90;;
44832;SDS011;30569;51.252;9.830;2022-08-18T05:48:07;1999.90;;;999.90;;
44832;SDS011;30569;51.252;9.830;2022-08-18T05:50:33;1999.90;;;999.90;;
44832;SDS011;30569;51.252;9.830;2022-08-18T05:55:32;1999.90;;;999.90;;
44832;SDS011;30569;51.252;9.830;2022-08-18T06:00:53;1999.90;;;999.90;;
44832;SDS011;30569;51.252;9.830;2022-08-18T06:03:23;1999.90;;;999.90;;
44832;SDS011;30569;51.252;9.830;2022-08-18T06:06:07;1999.90;;;999.90;;
44832;SDS011;30569;51.252;9.830;2022-08-18T06:08:39;1999.90;;;999.90;;
44832;SDS011;30569;51.252;9.830;2022-08-18T06:11:09;1999.90;;;999.90;;
44832;SDS011;30569;51.252;9.830;2022-08-18T06:13:36;1999.90;;;999.90;;
44832;SDS011;30569;51.252;9.830;2022-08-18T06:18:49;1999.90;;;999.90;;
44832;SDS011;30569;51.252;9.830;2022-08-18T06:21:38;1999.90;;;999.90;;
44832;SDS011;30569;51.252;9.830;2022-08-18T06:24:35;1999.90;;;999.90;;
44832;SDS011;30569;51.252;9.830;2022-08-18T06:27:33;1999.90;;;999.90;;
44832;SDS011;30569;51.252;9.830;2022-08-18T06:30:17;1999.90;;;999.90;;
44832;SDS011;30569;51.252;9.830;2022-08-18T06:38:02;1999.90;;;999.90;;
44832;SDS011;30569;51.252;9.830;2022-08-18T06:41:07;1999.90;;;999.90;;
44832;SDS011;30569;51.252;9.830;2022-08-18T06:43:38;1999.90;;;999.90;;
44832;SDS011;30569;51.252;9.830;2022-08-18T06:46:16;1999.90;;;999.90;;
44832;SDS011;30569;51.252;9.830;2022-08-18T06:48:51;1999.90;;;999.90;;
44832;SDS011;30569;51.252;9.830;2022-08-18T06:51:20;1999.90;;;999.90;;
44832;SDS011;30569;51.252;9.830;2022-08-18T06:53:53;1999.90;;;999.90;;
44832;SDS011;30569;51.252;9.830;2022-08-18T06:57:10;1999.90;;;999.90;;
44832;SDS011;30569;51.252;9.830;2022-08-18T07:01:43;1999.90;;;999.90;;
44832;SDS011;30569;51.252;9.830;2022-08-18T07:04:27;1999.90;;;999.90;;
44832;SDS011;30569;51.252;9.830;2022-08-18T07:07:27;1999.90;;;999.90;;
44832;SDS011;30569;51.252;9.830;2022-08-18T07:10:00;1999.90;;;999.90;;
44832;SDS011;30569;51.252;9.830;2022-08-18T07:13:04;1999.90;;;999.90;;
44832;SDS011;30569;51.252;9.830;2022-08-18T07:15:36;1999.90;;;999.90;;
44832;SDS011;30569;51.252;9.830;2022-08-18T07:18:03;1999.90;;;999.90;;
44832;SDS011;30569;51.252;9.830;2022-08-18T07:20:31;1999.90;;;999.90;;
44832;SDS011;30569;51.252;9.830;2022-08-18T07:23:19;1999.90;;;999.90;;
44832;SDS011;30569;51.252;9.830;2022-08-18T07:28:40;1999.90;;;999.90;;
44832;SDS011;30569;51.252;9.830;2022-08-18T07:34:06;1999.90;;;999.90;;
44832;SDS011;30569;51.252;9.830;2022-08-18T07:37:08;1999.90;;;999.90;;
44832;SDS011;30569;51.252;9.830;2022-08-18T07:39:42;1999.90;;;999.90;;
44832;SDS011;30569;51.252;9.830;2022-08-18T07:45:15;1999.90;;;999.90;;
44832;SDS011;30569;51.252;9.830;2022-08-18T07:50:33;1999.90;;;999.90;;
44832;SDS011;30569;51.252;9.830;2022-08-18T07:56:04;1999.90;;;999.90;;
44832;SDS011;30569;51.252;9.830;2022-08-18T07:58:38;1999.90;;;999.90;;
44832;SDS011;30569;51.252;9.830;2022-08-18T08:03:59;1999.90;;;999.90;;
44832;SDS011;30569;51.252;9.830;2022-08-18T08:06:47;1999.90;;;999.90;;
44832;SDS011;30569;51.252;9.830;2022-08-18T08:12:35;1999.90;;;999.90;;
44832;SDS011;30569;51.252;9.830;2022-08-18T08:15:20;1999.90;;;999.90;;
44832;SDS011;30569;51.252;9.830;2022-08-18T08:18:03;1999.90;;;999.90;;
44832;SDS011;30569;51.252;9.830;2022-08-18T08:20:43;1999.90;;;999.90;;
44832;SDS011;30569;51.252;9.830;2022-08-18T08:23:23;1999.90;;;999.90;;
44832;SDS011;30569;51.252;9.830;2022-08-18T08:26:20;1999.90;;;999.90;;
44832;SDS011;30569;51.252;9.830;2022-08-18T08:34:40;1999.90;;;999.90;;
44832;SDS011;30569;51.252;9.830;2022-08-18T08:37:17;1999.90;;;999.90;;
44832;SDS011;30569;51.252;9.830;2022-08-18T08:39:56;1999.90;;;999.90;;
44832;SDS011;30569;51.252;9.830;2022-08-18T08:42:37;1996.80;;;999.90;;
44832;SDS011;30569;51.252;9.830;2022-08-18T08:45:24;1999.90;;;999.90;;
44832;SDS011;30569;51.252;9.830;2022-08-18T08:50:48;1999.90;;;999.90;;
44832;SDS011;30569;51.252;9.830;2022-08-18T08:53:17;1988.07;;;999.90;;
44832;SDS011;30569;51.252;9.830;2022-08-18T08:55:58;1831.65;;;999.90;;
44832;SDS011;30569;51.252;9.830;2022-08-18T09:23:21;1819.43;;;999.90;;
44832;SDS011;30569;51.252;9.830;2022-08-18T09:25:51;1683.22;;;999.90;;
44832;SDS011;30569;51.252;9.830;2022-08-18T09:28:38;1699.88;;;999.90;;
44832;SDS011;30569;51.252;9.830;2022-08-18T09:31:20;1700.20;;;999.90;;
44832;SDS011;30569;51.252;9.830;2022-08-18T09:39:39;1901.90;;;999.90;;
44832;SDS011;30569;51.252;9.830;2022-08-18T09:42:39;1950.97;;;999.90;;
44832;SDS011;30569;51.252;9.830;2022-08-18T09:48:00;1956.30;;;999.90;;
44832;SDS011;30569;51.252;9.830;2022-08-18T09:50:37;1979.53;;;999.90;;
44832;SDS011;30569;51.252;9.830;2022-08-18T09:56:02;1999.90;;;999.90;;
44832;SDS011;30569;51.252;9.830;2022-08-18T09:58:46;1999.90;;;999.90;;
44832;SDS011;30569;51.252;9.830;2022-08-18T10:01:18;1999.90;;;999.90;;
44832;SDS011;30569;51.252;9.830;2022-08-18T10:06:39;1999.90;;;999.90;;
44832;SDS011;30569;51.252;9.830;2022-08-18T10:09:13;1999.90;;;999.90;;
44832;SDS011;30569;51.252;9.830;2022-08-18T10:14:38;1999.90;;;999.90;;
44832;SDS011;30569;51.252;9.830;2022-08-18T10:22:57;1999.90;;;999.90;;
44832;SDS011;30569;51.252;9.830;2022-08-18T10:25:36;1999.90;;;999.90;;
44832;SDS011;30569;51.252;9.830;2022-08-18T10:28:05;1999.90;;;999.90;;
44832;SDS011;30569;51.252;9.830;2022-08-18T10:32:58;1999.90;;;999.90;;
44832;SDS011;30569;51.252;9.830;2022-08-18T10:38:21;1999.90;;;999.90;;
44832;SDS011;30569;51.252;9.830;2022-08-18T10:40:53;1999.90;;;999.90;;
44832;SDS011;30569;51.252;9.830;2022-08-18T10:43:42;1999.90;;;999.90;;
44832;SDS011;30569;51.252;9.830;2022-08-18T10:46:16;1999.90;;;999.90;;
44832;SDS011;30569;51.252;9.830;2022-08-18T10:48:45;1999.90;;;999.90;;
44832;SDS011;30569;51.252;9.830;2022-08-18T10:51:30;1999.90;;;999.90;;
44832;SDS011;30569;51.252;9.830;2022-08-18T10:54:22;1999.90;;;999.90;;
44832;SDS011;30569;51.252;9.830;2022-08-18T10:57:29;1999.90;;;999.90;;
44832;SDS011;30569;51.252;9.830;2022-08-18T11:05:11;1999.90;;;999.90;;
44832;SDS011;30569;51.252;9.830;2022-08-18T11:07:48;1999.90;;;999.90;;
44832;SDS011;30569;51.252;9.830;2022-08-18T11:10:22;1999.90;;;999.90;;
44832;SDS011;30569;51.252;9.830;2022-08-18T11:13:29;1999.90;;;999.90;;
44832;SDS011;30569;51.252;9.830;2022-08-18T11:18:51;1999.90;;;999.90;;
44832;SDS011;30569;51.252;9.830;2022-08-18T11:21:44;1999.90;;;999.90;;
44832;SDS011;30569;51.252;9.830;2022-08-18T11:29:32;1999.90;;;999.90;;
44832;SDS011;30569;51.252;9.830;2022-08-18T11:32:34;1999.90;;;999.90;;
44832;SDS011;30569;51.252;9.830;2022-08-18T11:37:32;1999.90;;;999.90;;
44832;SDS011;30569;51.252;9.830;2022-08-18T11:40:04;1999.90;;;999.90;;
44832;SDS011;30569;51.252;9.830;2022-08-18T11:42:38;1999.90;;;999.90;;
44832;SDS011;30569;51.252;9.830;2022-08-18T11:58:51;1999.90;;;999.90;;
44832;SDS011;30569;51.252;9.830;2022-08-18T12:04:07;1999.90;;;999.90;;
44832;SDS011;30569;51.252;9.830;2022-08-18T12:11:54;1999.90;;;999.90;;
44832;SDS011;30569;51.252;9.830;2022-08-18T12:14:23;1999.90;;;999.90;;
44832;SDS011;30569;51.252;9.830;2022-08-18T12:16:50;1999.90;;;999.90;;
44832;SDS011;30569;51.252;9.830;2022-08-18T12:19:17;1999.90;;;999.90;;
44832;SDS011;30569;51.252;9.830;2022-08-18T12:21:44;1999.90;;;999.90;;
44832;SDS011;30569;51.252;9.830;2022-08-18T12:24:21;1999.90;;;999.90;;
44832;SDS011;30569;51.252;9.830;2022-08-18T12:26:55;1999.90;;;999.90;;
44832;SDS011;30569;51.252;9.830;2022-08-18T12:29:22;1999.90;;;999.90;;
44832;SDS011;30569;51.252;9.830;2022-08-18T12:31:50;1999.90;;;999.90;;
44832;SDS011;30569;51.252;9.830;2022-08-18T12:34:21;1999.90;;;999.90;;
44832;SDS011;30569;51.252;9.830;2022-08-18T12:36:53;1999.90;;;999.90;;
44832;SDS011;30569;51.252;9.830;2022-08-18T12:39:20;1999.90;;;999.90;;
44832;SDS011;30569;51.252;9.830;2022-08-18T12:41:46;1999.90;;;999.90;;
44832;SDS011;30569;51.252;9.830;2022-08-18T12:44:11;1999.90;;;999.90;;
44832;SDS011;30569;51.252;9.830;2022-08-18T12:46:37;1999.90;;;999.90;;
44832;SDS011;30569;51.252;9.830;2022-08-18T12:49:04;1999.90;;;999.90;;
44832;SDS011;30569;51.252;9.830;2022-08-18T12:51:34;1999.90;;;999.90;;
44832;SDS011;30569;51.252;9.830;2022-08-18T12:54:00;1999.90;;;999.90;;
44832;SDS011;30569;51.252;9.830;2022-08-18T12:56:26;1999.90;;;999.90;;
44832;SDS011;30569;51.252;9.830;2022-08-18T12:58:54;1999.90;;;999.90;;
44832;SDS011;30569;51.252;9.830;2022-08-18T13:01:21;1999.90;;;999.90;;
44832;SDS011;30569;51.252;9.830;2022-08-18T13:03:49;1999.90;;;999.90;;
44832;SDS011;30569;51.252;9.830;2022-08-18T13:06:17;1999.90;;;999.90;;
44832;SDS011;30569;51.252;9.830;2022-08-18T13:08:43;1999.90;;;999.90;;
44832;SDS011;30569;51.252;9.830;2022-08-18T13:11:09;1999.90;;;999.90;;
44832;SDS011;30569;51.252;9.830;2022-08-18T13:13:35;1999.90;;;999.90;;
44832;SDS011;30569;51.252;9.830;2022-08-18T13:16:03;1999.90;;;999.90;;
44832;SDS011;30569;51.252;9.830;2022-08-18T13:18:30;1999.90;;;999.90;;
44832;SDS011;30569;51.252;9.830;2022-08-18T13:20:59;1999.90;;;999.90;;
44832;SDS011;30569;51.252;9.830;2022-08-18T13:23:25;1999.90;;;999.90;;
44832;SDS011;30569;51.252;9.830;2022-08-18T13:25:52;1999.90;;;999.90;;
44832;SDS011;30569;51.252;9.830;2022-08-18T13:28:19;1999.90;;;999.90;;
44832;SDS011;30569;51.252;9.830;2022-08-18T13:30:44;1999.90;;;999.90;;
44832;SDS011;30569;51.252;9.830;2022-08-18T13:33:10;1999.90;;;999.90;;
44832;SDS011;30569;51.252;9.830;2022-08-18T13:35:36;1999.90;;;999.90;;
44832;SDS011;30569;51.252;9.830;2022-08-18T13:38:02;1999.90;;;999.90;;
44832;SDS011;30569;51.252;9.830;2022-08-18T13:40:29;1999.90;;;999.90;;
44832;SDS011;30569;51.252;9.830;2022-08-18T13:42:55;1999.90;;;999.90;;
44832;SDS011;30569;51.252;9.830;2022-08-18T13:45:21;1999.90;;;999.90;;
44832;SDS011;30569;51.252;9.830;2022-08-18T13:47:48;1999.90;;;999.90;;
44832;SDS011;30569;51.252;9.830;2022-08-18T13:50:14;1999.90;;;999.90;;
44832;SDS011;30569;51.252;9.830;2022-08-18T13:52:41;1999.90;;;999.90;;
44832;SDS011;30569;51.252;9.830;2022-08-18T13:55:16;1999.90;;;999.90;;
44832;SDS011;30569;51.252;9.830;2022-08-18T13:57:43;1999.90;;;999.90;;
44832;SDS011;30569;51.252;9.830;2022-08-18T14:00:13;1999.90;;;999.90;;
44832;SDS011;30569;51.252;9.830;2022-08-18T14:02:41;1999.90;;;999.90;;
44832;SDS011;30569;51.252;9.830;2022-08-18T14:05:07;1999.90;;;999.90;;
44832;SDS011;30569;51.252;9.830;2022-08-18T14:07:34;1999.90;;;999.90;;
44832;SDS011;30569;51.252;9.830;2022-08-18T14:10:00;1999.90;;;999.90;;
44832;SDS011;30569;51.252;9.830;2022-08-18T14:12:27;1999.90;;;999.90;;
44832;SDS011;30569;51.252;9.830;2022-08-18T14:14:54;1999.90;;;999.90;;
44832;SDS011;30569;51.252;9.830;2022-08-18T14:17:20;1999.90;;;999.90;;
44832;SDS011;30569;51.252;9.830;2022-08-18T14:19:47;1999.90;;;999.90;;
44832;SDS011;30569;51.252;9.830;2022-08-18T14:22:32;1999.90;;;999.90;;
44832;SDS011;30569;51.252;9.830;2022-08-18T14:25:16;1999.90;;;999.90;;
44832;SDS011;30569;51.252;9.830;2022-08-18T14:28:00;1999.90;;;999.90;;
44832;SDS011;30569;51.252;9.830;2022-08-18T14:30:26;1999.90;;;999.90;;
44832;SDS011;30569;51.252;9.830;2022-08-18T14:32:52;1999.90;;;999.90;;
44832;SDS011;30569;51.252;9.830;2022-08-18T14:35:17;1999.90;;;999.90;;
44832;SDS011;30569;51.252;9.830;2022-08-18T14:37:44;1999.90;;;999.90;;
44832;SDS011;30569;51.252;9.830;2022-08-18T14:40:10;1999.90;;;999.90;;
44832;SDS011;30569;51.252;9.830;2022-08-18T14:42:36;1999.90;;;999.90;;
44832;SDS011;30569;51.252;9.830;2022-08-18T14:45:03;1999.90;;;999.90;;
44832;SDS011;30569;51.252;9.830;2022-08-18T14:47:31;1999.90;;;999.90;;
44832;SDS011;30569;51.252;9.830;2022-08-18T14:49:57;1999.90;;;999.90;;
44832;SDS011;30569;51.252;9.830;2022-08-18T14:52:23;1999.90;;;999.90;;
44832;SDS011;30569;51.252;9.830;2022-08-18T14:54:49;1999.90;;;999.90;;
44832;SDS011;30569;51.252;9.830;2022-08-18T14:57:15;1999.90;;;999.90;;
44832;SDS011;30569;51.252;9.830;2022-08-18T14:59:41;1999.90;;;999.90;;
44832;SDS011;30569;51.252;9.830;2022-08-18T15:02:08;1999.90;;;999.90;;
44832;SDS011;30569;51.252;9.830;2022-08-18T15:04:34;1999.90;;;999.90;;
44832;SDS011;30569;51.252;9.830;2022-08-18T15:07:00;1999.90;;;999.90;;
44832;SDS011;30569;51.252;9.830;2022-08-18T15:09:26;1999.90;;;999.90;;
44832;SDS011;30569;51.252;9.830;2022-08-18T15:11:55;1999.90;;;999.90;;
44832;SDS011;30569;51.252;9.830;2022-08-18T15:14:26;1999.90;;;999.90;;
44832;SDS011;30569;51.252;9.830;2022-08-18T15:16:55;1999.90;;;999.90;;
44832;SDS011;30569;51.252;9.830;2022-08-18T15:19:22;1999.90;;;999.90;;
44832;SDS011;30569;51.252;9.830;2022-08-18T15:21:48;1999.90;;;999.90;;
44832;SDS011;30569;51.252;9.830;2022-08-18T15:24:32;1999.90;;;999.90;;
44832;SDS011;30569;51.252;9.830;2022-08-18T15:27:16;1999.90;;;999.90;;
44832;SDS011;30569;51.252;9.830;2022-08-18T15:29:42;1999.90;;;999.90;;
44832;SDS011;30569;51.252;9.830;2022-08-18T15:32:08;1999.90;;;999.90;;
44832;SDS011;30569;51.252;9.830;2022-08-18T15:34:34;1999.90;;;999.90;;
44832;SDS011;30569;51.252;9.830;2022-08-18T15:36:59;1936.93;;;999.90;;
44832;SDS011;30569;51.252;9.830;2022-08-18T15:39:25;1748.43;;;999.90;;
44832;SDS011;30569;51.252;9.830;2022-08-18T15:41:51;1648.10;;;999.90;;
44832;SDS011;30569;51.252;9.830;2022-08-18T15:44:18;1999.90;;;999.90;;
44832;SDS011;30569;51.252;9.830;2022-08-18T15:46:44;1999.90;;;999.90;;
44832;SDS011;30569;51.252;9.830;2022-08-18T15:49:12;1999.90;;;999.90;;
44832;SDS011;30569;51.252;9.830;2022-08-18T15:51:38;1999.90;;;999.90;;
44832;SDS011;30569;51.252;9.830;2022-08-18T15:54:06;1999.90;;;999.90;;
44832;SDS011;30569;51.252;9.830;2022-08-18T15:56:33;1999.90;;;999.90;;
44832;SDS011;30569;51.252;9.830;2022-08-18T15:59:00;1999.90;;;999.90;;
44832;SDS011;30569;51.252;9.830;2022-08-18T16:01:28;1999.90;;;999.90;;
44832;SDS011;30569;51.252;9.830;2022-08-18T16:03:54;1999.90;;;999.90;;
44832;SDS011;30569;51.252;9.830;2022-08-18T16:06:21;1999.90;;;999.90;;
44832;SDS011;30569;51.252;9.830;2022-08-18T16:08:49;1999.90;;;999.90;;
44832;SDS011;30569;51.252;9.830;2022-08-18T16:11:17;1999.90;;;999.90;;
44832;SDS011;30569;51.252;9.830;2022-08-18T16:13:44;1999.90;;;999.90;;
44832;SDS011;30569;51.252;9.830;2022-08-18T16:16:14;1999.90;;;999.90;;
44832;SDS011;30569;51.252;9.830;2022-08-18T16:18:42;1999.90;;;999.90;;
44832;SDS011;30569;51.252;9.830;2022-08-18T16:21:10;1999.90;;;999.90;;
44832;SDS011;30569;51.252;9.830;2022-08-18T16:23:37;1957.22;;;999.90;;
44832;SDS011;30569;51.252;9.830;2022-08-18T16:26:05;1937.35;;;999.90;;
44832;SDS011;30569;51.252;9.830;2022-08-18T16:28:32;1999.90;;;999.90;;